Onde está Cassoaria en Portugal?

 

Cassoaria está situado na região Lisboa em Portugal!

Buscar o nome de uma cidade:

Cassala, Cassalemba, Cassongo, Casseque Segundo, Cassanga

Aqui você vai encontrar a localização de Cassoaria em um mapa.
Para ver como ele atualmente parece, abaixo estão algumas fotos da região, com webcams online.
Você também pode encontrar a distância para as principais cidades da região e de cidades do resto do Portugal.

Cidades do mundo
Cidades em Portugal que também são encontradas em outros países do mundo.


Onde está Cassoaria no mapa?




Webcams perto Cassoaria

Benavente › North-East: Santarém - AIrport, METAR: BENAV 180005Z 36004KT 17/14 Q1015.


Benavente › North-East: Santarém - AIrport, METAR: BENAV 180005Z 36004KT 17/14 Q1015 - Dia
Actual
Benavente › North-East: Santarém - AIrport, METAR: BENAV 180005Z 36004KT 17/14 Q1015 - Actual

Silveira › West.


Silveira › West - Dia
Actual
Silveira › West - Actual

Lisbon › North: Ponte Vasco da Gama.


Lisbon › North: Ponte Vasco da Gama - Dia
Actual
Lisbon › North: Ponte Vasco da Gama - Actual

Webcams provided by windy.comadd a webcam


Distâncias

Onde está Cassoaria em relação a outros lugares?

Top 10 cidades em Lisboa e distância de Cassoaria.

Cidade#Populaçãokmmilhas
Lisbon15177984025
Amadora21788563723
Queluz31033983924
Loures4662302918
Rio de Mouro5546954025
Odivelas6546233220
São Domingos de Rana7467174729
Cascais8364365132
Alcabideche9333154830
Póvoa de Santa Iria10289002314

Top 10 cidades em Portugal e distância de Cassoaria.

Cidade # Populaçãokmmilhas
Lisbon15177984025
Porto2249630235146
Amadora31788563723
Braga4121393282175
Setúbal51171096138
Coimbra610658013886
Queluz71033983924
Funchal8980411006625
Vila Nova de Gaia970810233145
Loures10662302918


Info

Estatística e Geografia

Portugal é composta de 15299 cidades em 20 regiões.

A região de Lisboa tem 1032 cidades.

Cassoaria é o número 389 na região Lisboa.

A cidade é o número 3949 na Portugal.

Onde está Cassoaria en Portugal?